createdAt,value
2023-12-30T00:01:53.251Z,80.28
2023-12-30T00:04:55.349Z,85.30
2023-12-30T00:07:57.390Z,87.55
2023-12-30T00:10:59.419Z,104.13
2023-12-30T00:14:01.450Z,98.63
2023-12-30T00:17:03.597Z,95.03
2023-12-30T00:20:06.884Z,94.93
2023-12-30T00:23:08.968Z,85.35
2023-12-30T00:26:19.214Z,96.43
2023-12-30T00:29:21.379Z,96.10
2023-12-30T00:32:23.460Z,94.60
2023-12-30T00:35:25.491Z,93.93
2023-12-30T00:38:27.507Z,92.05
2023-12-30T00:41:30.283Z,74.47
2023-12-30T00:44:32.333Z,84.38
2023-12-30T00:47:34.495Z,81.78
2023-12-30T00:50:36.683Z,93.57
2023-12-30T00:53:38.698Z,80.20
2023-12-30T00:56:40.693Z,103.47
2023-12-30T00:59:42.706Z,101.72
2023-12-30T01:02:44.745Z,84.95
2023-12-30T01:05:47.186Z,88.07
2023-12-30T01:08:49.215Z,83.10
2023-12-30T01:11:51.396Z,72.78
2023-12-30T01:14:54.627Z,73.65
2023-12-30T01:17:56.797Z,75.20
2023-12-30T01:20:58.891Z,67.43
2023-12-30T01:24:00.928Z,77.03
2023-12-30T01:27:02.973Z,98.47
2023-12-30T01:30:05.391Z,95.15
2023-12-30T01:33:07.751Z,83.72
2023-12-30T01:36:11.352Z,95.07
2023-12-30T01:39:14.366Z,69.63
2023-12-30T01:42:16.418Z,74.95
2023-12-30T01:45:18.489Z,80.45
2023-12-30T01:48:21.924Z,94.95
2023-12-30T01:51:26.391Z,102.30
2023-12-30T01:54:29.081Z,87.20
2023-12-30T01:57:31.650Z,109.28
2023-12-30T02:00:35.596Z,121.75
2023-12-30T02:03:37.905Z,91.53
2023-12-30T02:06:43.252Z,102.67
2023-12-30T02:09:45.334Z,107.53
2023-12-30T02:12:47.522Z,111.47
2023-12-30T02:15:49.724Z,102.43
2023-12-30T02:18:52.028Z,98.22
2023-12-30T02:21:54.397Z,105.73
2023-12-30T02:25:01.028Z,92.10
2023-12-30T02:28:03.208Z,87.88
2023-12-30T02:31:06.469Z,94.80
2023-12-30T02:34:08.597Z,100.80
2023-12-30T02:37:10.657Z,92.93
2023-12-30T02:40:12.808Z,91.95
2023-12-30T02:43:15.071Z,87.78
2023-12-30T02:46:17.193Z,78.57
2023-12-30T02:49:20.457Z,111.32
2023-12-30T02:52:23.522Z,128.33
2023-12-30T02:55:25.678Z,99.40
2023-12-30T02:58:27.756Z,89.28
2023-12-30T03:01:30.941Z,98.03
2023-12-30T03:04:33.987Z,96.93
2023-12-30T03:07:38.158Z,97.50
2023-12-30T03:10:40.431Z,89.07
2023-12-30T03:13:42.565Z,87.47
2023-12-30T03:16:44.610Z,111.15
2023-12-30T03:19:47.940Z,70.43
2023-12-30T03:22:50.112Z,82.60
2023-12-30T03:25:52.343Z,78.72
2023-12-30T03:28:54.524Z,73.25
2023-12-30T03:31:56.843Z,71.10
2023-12-30T03:34:58.963Z,66.45
2023-12-30T03:38:01.086Z,62.57
2023-12-30T03:41:03.138Z,60.28
2023-12-30T03:44:05.188Z,78.32
2023-12-30T03:47:07.418Z,61.88
2023-12-30T03:50:10.155Z,63.15
2023-12-30T03:53:12.283Z,61.17
2023-12-30T03:56:14.424Z,56.53
2023-12-30T03:59:16.469Z,67.20
2023-12-30T04:02:22.161Z,64.18
2023-12-30T04:05:24.673Z,54.53
2023-12-30T04:08:26.736Z,51.27
2023-12-30T04:11:28.797Z,72.22
2023-12-30T04:14:30.864Z,63.30
2023-12-30T04:17:32.955Z,71.85
2023-12-30T04:20:35.019Z,78.65
2023-12-30T04:23:37.327Z,74.13
2023-12-30T04:26:39.346Z,60.42
2023-12-30T04:29:41.356Z,71.50
2023-12-30T04:32:43.512Z,67.10
2023-12-30T04:35:46.012Z,64.35
2023-12-30T04:38:48.082Z,64.17
2023-12-30T04:41:50.124Z,61.70
2023-12-30T04:44:52.415Z,65.35
2023-12-30T04:47:54.900Z,60.80
2023-12-30T04:50:57.228Z,54.17
2023-12-30T04:53:59.365Z,61.23
2023-12-30T04:57:02.828Z,62.80
2023-12-30T05:00:05.819Z,68.10
2023-12-30T05:03:08.690Z,70.40
2023-12-30T05:06:20.883Z,58.40
2023-12-30T05:09:22.862Z,65.00
2023-12-30T05:12:24.865Z,117.18
2023-12-30T05:15:26.854Z,77.55
2023-12-30T05:18:28.937Z,73.82
2023-12-30T05:21:31.034Z,66.13
2023-12-30T05:24:33.042Z,67.43
2023-12-30T05:27:35.046Z,54.97
2023-12-30T05:30:37.468Z,65.13
2023-12-30T05:33:40.251Z,79.07
2023-12-30T05:36:42.349Z,59.53
2023-12-30T05:39:45.453Z,62.97
2023-12-30T05:42:47.815Z,83.22
2023-12-30T05:45:50.053Z,89.45
2023-12-30T05:48:52.356Z,97.40
2023-12-30T05:51:54.733Z,86.43
2023-12-30T05:54:56.791Z,62.27
2023-12-30T05:57:58.852Z,102.13
2023-12-30T06:01:00.928Z,92.05
2023-12-30T06:04:03.851Z,96.43
2023-12-30T06:07:06.106Z,93.85
2023-12-30T06:10:08.741Z,97.40
2023-12-30T06:13:11.186Z,94.50
2023-12-30T06:16:13.263Z,86.65
2023-12-30T06:19:17.965Z,80.28
2023-12-30T06:22:20.334Z,66.32
2023-12-30T06:25:22.496Z,83.97
2023-12-30T06:28:25.779Z,83.82
2023-12-30T06:31:27.949Z,64.75
2023-12-30T06:34:30.022Z,74.10
2023-12-30T06:37:32.177Z,60.88
2023-12-30T06:40:34.371Z,67.43
2023-12-30T06:43:36.554Z,71.55
2023-12-30T06:46:38.781Z,65.10
2023-12-30T06:49:40.905Z,98.38
2023-12-30T06:52:43.047Z,78.78
2023-12-30T06:55:48.198Z,81.70
2023-12-30T06:58:53.139Z,76.20
2023-12-30T07:01:55.249Z,85.13
2023-12-30T07:04:57.315Z,84.10
2023-12-30T07:08:00.360Z,106.25
2023-12-30T07:11:02.535Z,75.83
2023-12-30T07:14:04.548Z,80.78
2023-12-30T07:17:07.570Z,88.72
2023-12-30T07:20:09.778Z,86.43
2023-12-30T07:23:11.816Z,81.72
2023-12-30T07:26:13.819Z,74.60
2023-12-30T07:29:15.847Z,73.47
2023-12-30T07:32:17.828Z,79.78
2023-12-30T07:35:19.922Z,73.40
2023-12-30T07:38:22.030Z,74.70
2023-12-30T07:41:24.223Z,64.40
2023-12-30T07:44:26.256Z,66.40
2023-12-30T07:47:28.391Z,58.00
2023-12-30T07:50:30.454Z,54.45
2023-12-30T07:53:32.732Z,48.10
2023-12-30T07:56:34.837Z,53.27
2023-12-30T07:59:36.880Z,63.80
2023-12-30T08:02:38.884Z,61.53
2023-12-30T08:05:41.050Z,50.03
2023-12-30T08:08:43.054Z,49.85
2023-12-30T08:11:50.631Z,42.33
2023-12-30T08:15:01.016Z,57.47
2023-12-30T08:18:03.359Z,218.95
2023-12-30T08:21:05.565Z,68.55
2023-12-30T08:24:08.375Z,68.47
2023-12-30T08:27:10.896Z,102.47
2023-12-30T08:30:13.115Z,60.53
2023-12-30T08:33:15.626Z,55.38
2023-12-30T08:36:17.955Z,76.47
2023-12-30T08:39:20.106Z,50.53
2023-12-30T08:42:23.299Z,61.27
2023-12-30T08:45:25.502Z,64.53
2023-12-30T08:48:27.642Z,80.88
2023-12-30T08:51:31.121Z,68.40
2023-12-30T08:54:33.281Z,48.25
2023-12-30T08:57:35.335Z,63.40
2023-12-30T09:00:37.360Z,57.33
2023-12-30T09:03:39.492Z,55.90
2023-12-30T09:06:41.673Z,67.57
2023-12-30T09:09:43.709Z,75.07
2023-12-30T09:12:46.101Z,44.17
2023-12-30T09:15:48.118Z,35.10
2023-12-30T09:18:50.222Z,41.03
2023-12-30T09:21:52.402Z,36.65
2023-12-30T09:24:55.279Z,33.85
2023-12-30T09:27:57.384Z,31.70
2023-12-30T09:30:59.577Z,29.03
2023-12-30T09:34:01.696Z,32.88
2023-12-30T09:37:03.853Z,34.42
2023-12-30T09:40:06.373Z,35.33
2023-12-30T09:43:09.077Z,30.30
2023-12-30T09:46:11.563Z,39.70
2023-12-30T09:49:14.555Z,47.50
2023-12-30T09:52:16.710Z,37.35
2023-12-30T09:55:18.851Z,52.05
2023-12-30T09:58:22.126Z,55.93
2023-12-30T10:01:24.575Z,51.13
2023-12-30T10:04:26.748Z,51.55
2023-12-30T10:07:32.896Z,55.38
2023-12-30T10:10:45.537Z,56.08
2023-12-30T10:13:47.792Z,76.93
2023-12-30T10:16:50.031Z,78.10
2023-12-30T10:19:52.100Z,148.60
2023-12-30T10:22:54.301Z,119.68
2023-12-30T10:25:56.414Z,74.95
2023-12-30T10:28:58.605Z,56.17
2023-12-30T10:32:02.148Z,38.57
2023-12-30T10:35:05.268Z,29.83
2023-12-30T10:38:10.632Z,34.90
2023-12-30T10:41:15.767Z,31.50
2023-12-30T10:44:18.052Z,28.60
2023-12-30T10:47:22.246Z,32.23
2023-12-30T10:50:25.418Z,29.08
2023-12-30T10:53:29.882Z,32.75
2023-12-30T10:56:41.073Z,32.47
2023-12-30T10:59:43.967Z,40.10
2023-12-30T11:02:48.029Z,33.57
2023-12-30T11:06:11.036Z,34.88
2023-12-30T11:09:14.804Z,30.38
2023-12-30T11:12:16.813Z,52.88
2023-12-30T11:15:25.182Z,44.07
2023-12-30T11:18:45.112Z,50.20
2023-12-30T11:21:48.389Z,75.78
2023-12-30T11:24:50.612Z,46.83
2023-12-30T11:27:53.611Z,38.08
2023-12-30T11:30:57.580Z,37.33
2023-12-30T11:34:00.243Z,33.83
2023-12-30T11:37:03.460Z,31.10
2023-12-30T11:40:06.462Z,34.90
2023-12-30T11:43:09.672Z,33.97
2023-12-30T11:46:13.122Z,31.80
2023-12-30T11:49:22.495Z,29.60
2023-12-30T11:52:24.649Z,41.22
2023-12-30T11:55:26.962Z,36.58
2023-12-30T11:58:31.872Z,44.00
2023-12-30T12:01:34.058Z,69.57
2023-12-30T12:04:37.199Z,54.90
2023-12-30T12:07:39.469Z,47.15
2023-12-30T12:10:41.652Z,54.72
2023-12-30T12:13:43.755Z,47.03
2023-12-30T12:16:46.391Z,40.53
2023-12-30T12:19:48.640Z,42.47
2023-12-30T12:22:56.790Z,41.40
2023-12-30T12:25:58.906Z,46.53
2023-12-30T12:29:00.916Z,44.17
2023-12-30T12:32:04.467Z,39.60
2023-12-30T12:35:06.845Z,35.00
2023-12-30T12:38:09.340Z,38.05
2023-12-30T12:41:11.397Z,37.92
2023-12-30T12:44:13.565Z,43.90
2023-12-30T12:47:15.657Z,39.33
2023-12-30T12:50:17.769Z,36.93
2023-12-30T12:53:19.816Z,50.45
2023-12-30T12:56:21.855Z,37.85
2023-12-30T12:59:24.012Z,33.42
2023-12-30T13:02:27.796Z,34.03
2023-12-30T13:05:29.988Z,32.23
2023-12-30T13:08:34.372Z,35.30
2023-12-30T13:11:45.957Z,36.97
2023-12-30T13:14:48.035Z,46.08
2023-12-30T13:17:50.160Z,44.90
2023-12-30T13:20:52.425Z,42.03
2023-12-30T13:23:55.101Z,65.38
2023-12-30T13:26:57.324Z,79.10
2023-12-30T13:29:59.418Z,63.15
2023-12-30T13:33:05.584Z,58.97
2023-12-30T13:36:12.810Z,48.53
2023-12-30T13:39:15.232Z,50.45
2023-12-30T13:42:18.303Z,52.97
2023-12-30T13:45:20.599Z,56.40
2023-12-30T13:48:45.280Z,51.20
2023-12-30T13:51:56.029Z,51.53
2023-12-30T13:54:58.261Z,52.63
2023-12-30T13:58:03.143Z,49.75
2023-12-30T14:01:06.801Z,61.03
2023-12-30T14:04:09.393Z,70.70
2023-12-30T14:07:17.351Z,86.70
2023-12-30T14:10:20.078Z,47.05
2023-12-30T14:13:24.261Z,43.63
2023-12-30T14:16:26.554Z,45.90
2023-12-30T14:19:28.757Z,41.30
2023-12-30T14:22:31.333Z,36.00
2023-12-30T14:25:33.592Z,37.75
2023-12-30T14:28:35.702Z,46.70
2023-12-30T14:31:37.796Z,44.05
2023-12-30T14:34:39.852Z,43.43
2023-12-30T14:37:42.793Z,51.87
2023-12-30T14:40:44.964Z,51.70
2023-12-30T14:43:51.406Z,82.88
2023-12-30T14:46:53.653Z,68.95
2023-12-30T14:49:55.739Z,39.67
2023-12-30T14:52:57.786Z,38.43
2023-12-30T14:55:59.816Z,44.20
2023-12-30T14:59:02.031Z,47.25
2023-12-30T15:02:04.188Z,82.55
2023-12-30T15:05:06.888Z,93.47
2023-12-30T15:08:09.629Z,75.83
2023-12-30T15:11:11.862Z,80.20
2023-12-30T15:14:13.974Z,116.97
2023-12-30T15:17:16.102Z,130.68
2023-12-30T15:20:19.857Z,96.67
2023-12-30T15:23:21.940Z,92.80
2023-12-30T15:26:23.978Z,103.35
2023-12-30T15:29:26.034Z,104.85
2023-12-30T15:32:28.434Z,83.32
2023-12-30T15:35:31.644Z,83.47
2023-12-30T15:38:33.836Z,245.90
2023-12-30T15:41:35.913Z,123.05
2023-12-30T15:44:39.101Z,279.42
2023-12-30T15:47:43.308Z,202.80
2023-12-30T15:50:46.267Z,257.47
2023-12-30T15:53:49.536Z,430.07
2023-12-30T15:56:53.190Z,231.93
2023-12-30T15:59:55.265Z,246.75
2023-12-30T16:02:57.495Z,74.28
2023-12-30T16:05:59.702Z,76.13
2023-12-30T16:09:01.785Z,78.63
2023-12-30T16:12:04.465Z,54.33
2023-12-30T16:15:06.926Z,58.03
2023-12-30T16:18:09.156Z,63.80
2023-12-30T16:21:13.317Z,62.63
2023-12-30T16:24:15.495Z,58.97
2023-12-30T16:27:17.510Z,48.22
2023-12-30T16:30:20.040Z,85.57
2023-12-30T16:33:22.382Z,180.82
2023-12-30T16:36:25.581Z,84.80
2023-12-30T16:39:27.625Z,82.13
2023-12-30T16:42:30.408Z,68.78
2023-12-30T16:45:32.423Z,56.95
2023-12-30T16:48:34.580Z,60.65
2023-12-30T16:51:37.806Z,66.80
2023-12-30T16:54:39.867Z,55.53
2023-12-30T16:57:41.915Z,73.88
2023-12-30T17:00:46.287Z,79.38
2023-12-30T17:03:48.439Z,136.95
2023-12-30T17:06:50.489Z,61.97
2023-12-30T17:09:52.563Z,69.03
2023-12-30T17:12:54.664Z,67.65
2023-12-30T17:15:56.751Z,65.93
2023-12-30T17:18:59.500Z,69.47
2023-12-30T17:22:01.783Z,63.03
2023-12-30T17:25:04.224Z,73.13
2023-12-30T17:28:06.445Z,62.60
2023-12-30T17:31:10.864Z,65.88
2023-12-30T17:34:13.138Z,74.07
2023-12-30T17:37:15.300Z,65.00
2023-12-30T17:40:19.266Z,68.80
2023-12-30T17:43:21.595Z,97.57
2023-12-30T17:46:23.822Z,83.18
2023-12-30T17:49:26.267Z,65.30
2023-12-30T17:52:28.342Z,84.67
2023-12-30T17:55:32.763Z,78.87
2023-12-30T17:58:35.007Z,116.95
2023-12-30T18:01:37.196Z,97.00
2023-12-30T18:04:39.298Z,148.95
2023-12-30T18:07:41.594Z,141.73
2023-12-30T18:10:43.869Z,141.30
2023-12-30T18:13:46.103Z,152.30
2023-12-30T18:16:48.209Z,145.40
2023-12-30T18:19:50.442Z,143.07
2023-12-30T18:22:53.004Z,132.67
2023-12-30T18:25:55.258Z,115.67
2023-12-30T18:28:58.160Z,119.93
2023-12-30T18:32:02.963Z,116.97
2023-12-30T18:35:05.553Z,127.60
2023-12-30T18:38:07.734Z,148.03
2023-12-30T18:41:09.831Z,151.90
2023-12-30T18:44:12.073Z,101.70
2023-12-30T18:47:14.295Z,103.60
2023-12-30T18:50:16.613Z,96.10
2023-12-30T18:53:18.934Z,80.10
2023-12-30T18:56:21.044Z,106.10
2023-12-30T18:59:23.373Z,100.68
2023-12-30T19:02:25.465Z,90.25
2023-12-30T19:05:27.750Z,63.83
2023-12-30T19:08:31.410Z,65.53
2023-12-30T19:11:33.636Z,98.30
2023-12-30T19:14:35.765Z,83.03
2023-12-30T19:17:37.863Z,110.72
2023-12-30T19:20:40.073Z,161.23
2023-12-30T19:23:42.177Z,211.97
2023-12-30T19:26:44.298Z,189.73
2023-12-30T19:29:46.669Z,246.07
2023-12-30T19:32:49.315Z,247.18
2023-12-30T19:35:52.701Z,248.35
2023-12-30T19:38:55.754Z,253.23
2023-12-30T19:41:58.215Z,237.02
2023-12-30T19:45:02.744Z,195.85
2023-12-30T19:48:05.243Z,179.25
2023-12-30T19:51:07.815Z,126.72
2023-12-30T19:54:09.847Z,142.67
2023-12-30T19:57:13.027Z,125.38
2023-12-30T20:00:15.196Z,139.65
2023-12-30T20:03:17.268Z,109.30
2023-12-30T20:06:19.427Z,97.00
2023-12-30T20:09:21.711Z,94.27
2023-12-30T20:12:23.721Z,101.32
2023-12-30T20:15:26.402Z,86.53
2023-12-30T20:18:28.602Z,101.55
2023-12-30T20:21:31.453Z,115.93
2023-12-30T20:24:33.514Z,145.27
2023-12-30T20:27:35.670Z,180.20
2023-12-30T20:30:37.766Z,162.70
2023-12-30T20:33:39.916Z,148.73
2023-12-30T20:36:42.018Z,169.55
2023-12-30T20:39:44.069Z,175.70
2023-12-30T20:42:46.145Z,172.25
2023-12-30T20:45:48.911Z,168.90
2023-12-30T20:48:51.046Z,167.57
2023-12-30T20:51:53.399Z,116.60
2023-12-30T20:54:55.480Z,134.60
2023-12-30T20:57:57.549Z,159.68
2023-12-30T21:00:59.903Z,182.25
2023-12-30T21:04:02.077Z,220.85
2023-12-30T21:07:04.819Z,205.43
2023-12-30T21:10:08.249Z,213.97
2023-12-30T21:13:10.352Z,205.35
2023-12-30T21:16:18.797Z,194.07
2023-12-30T21:19:21.126Z,204.38
2023-12-30T21:22:23.266Z,221.35
2023-12-30T21:25:27.517Z,208.80
2023-12-30T21:28:31.715Z,194.63
2023-12-30T21:31:33.861Z,162.70
2023-12-30T21:34:36.443Z,145.52
2023-12-30T21:37:42.034Z,164.23
2023-12-30T21:40:50.321Z,150.00
2023-12-30T21:43:52.584Z,127.72
2023-12-30T21:46:54.717Z,133.98
2023-12-30T21:49:56.862Z,118.88
2023-12-30T21:52:59.027Z,161.43
2023-12-30T21:56:01.087Z,123.67
2023-12-30T21:59:03.770Z,94.65
2023-12-30T22:02:06.302Z,113.72
2023-12-30T22:05:09.648Z,113.93
2023-12-30T22:08:11.733Z,116.95
2023-12-30T22:11:13.801Z,118.50
2023-12-30T22:14:15.852Z,104.32
2023-12-30T22:17:17.896Z,119.40
2023-12-30T22:20:20.020Z,112.93
2023-12-30T22:23:22.085Z,135.82
2023-12-30T22:26:24.120Z,189.97
2023-12-30T22:29:26.294Z,149.20
2023-12-30T22:32:28.419Z,146.02
2023-12-30T22:35:33.490Z,133.80
2023-12-30T22:38:36.729Z,118.55
2023-12-30T22:41:38.833Z,100.37
2023-12-30T22:44:41.100Z,100.45
2023-12-30T22:47:43.188Z,97.40
2023-12-30T22:50:46.418Z,89.85
2023-12-30T22:53:48.497Z,88.80
2023-12-30T22:56:50.582Z,89.93
2023-12-30T22:59:52.629Z,94.32
2023-12-30T23:02:55.128Z,96.90
2023-12-30T23:05:57.216Z,88.20
2023-12-30T23:08:59.438Z,93.35
2023-12-30T23:12:01.453Z,87.97
2023-12-30T23:15:03.864Z,85.10
2023-12-30T23:18:06.078Z,85.30
2023-12-30T23:21:08.142Z,84.47
2023-12-30T23:24:10.196Z,93.15
2023-12-30T23:27:12.292Z,96.93
2023-12-30T23:30:15.272Z,82.78
2023-12-30T23:33:17.624Z,83.80
2023-12-30T23:36:19.954Z,80.78
2023-12-30T23:39:22.646Z,85.47
2023-12-30T23:42:24.658Z,91.03
2023-12-30T23:45:26.920Z,124.57
2023-12-30T23:48:28.963Z,155.80
2023-12-30T23:51:31.044Z,118.85
2023-12-30T23:54:33.026Z,120.85
2023-12-30T23:57:38.348Z,94.27
